Time;durP1;ratioP1;P1;durP2;ratioP2;P2;SDS_P1;SDS_P2;PMS_P1;PMS_P2;Temp;Humidity;BMP_temperature;BMP_pressure;BME280_temperature;BME280_humidity;BME280_pressure;Samples;Min_cycle;Max_cycle;Signal;HPM_P1;HPM_P2
2022/09/11 00:01:34;;;;;;;3.72;2.13;;;;;;;;;;5010671;28;20099;-78
2022/09/11 00:04:00;;;;;;;2.13;1.90;;;;;;;;;;5021292;28;20026;-79
2022/09/11 00:06:27;;;;;;;3.30;1.98;;;;;;;;;;5010164;28;20038;-79
2022/09/11 00:08:59;;;;;;;3.45;2.30;;;;;;;;;;5011379;28;20477;-79
2022/09/11 00:11:25;;;;;;;2.15;1.88;;;;;;;;;;5021547;28;20029;-79
2022/09/11 00:13:52;;;;;;;3.22;2.33;;;;;;;;;;5023375;28;20037;-78
2022/09/11 00:16:21;;;;;;;3.53;2.20;;;;;;;;;;5016082;28;20111;-79
2022/09/11 00:18:48;;;;;;;1.80;1.70;;;;;;;;;;5016887;28;20040;-79
2022/09/11 00:21:14;;;;;;;2.50;1.75;;;;;;;;;;5017857;28;20672;-79
2022/09/11 00:23:40;;;;;;;2.40;1.90;;;;;;;;;;5022390;28;20064;-79
2022/09/11 00:26:06;;;;;;;2.17;1.70;;;;;;;;;;5015168;28;20025;-79
2022/09/11 00:28:33;;;;;;;1.90;1.70;;;;;;;;;;5014887;28;20033;-79
2022/09/11 00:31:00;;;;;;;4.53;2.00;;;;;;;;;;5021287;28;20038;-79
2022/09/11 00:33:26;;;;;;;2.83;2.33;;;;;;;;;;5009812;28;20164;-79
2022/09/11 00:35:57;;;;;;;3.28;2.03;;;;;;;;;;5027495;28;20033;-79
2022/09/11 00:38:23;;;;;;;3.17;2.00;;;;;;;;;;5019808;28;20037;-79
2022/09/11 00:40:49;;;;;;;2.17;1.88;;;;;;;;;;5013462;28;20500;-79
2022/09/11 00:43:16;;;;;;;2.85;1.90;;;;;;;;;;5018346;28;20033;-79
2022/09/11 00:45:42;;;;;;;2.47;1.80;;;;;;;;;;5018762;28;20057;-79
2022/09/11 00:48:09;;;;;;;2.28;1.77;;;;;;;;;;5015330;28;20021;-79
2022/09/11 00:50:35;;;;;;;2.60;1.75;;;;;;;;;;5014340;28;20500;-79
2022/09/11 00:53:03;;;;;;;5.50;1.77;;;;;;;;;;5023699;28;20091;-79
2022/09/11 00:55:32;;;;;;;2.58;1.95;;;;;;;;;;5018991;28;20026;-79
2022/09/11 00:57:59;;;;;;;2.25;1.80;;;;;;;;;;5021338;28;20528;-78
2022/09/11 01:00:25;;;;;;;2.65;1.75;;;;;;;;;;5026129;28;20029;-79
2022/09/11 01:02:53;;;;;;;4.03;2.35;;;;;;;;;;5016137;28;20099;-79
2022/09/11 01:05:21;;;;;;;2.88;1.85;;;;;;;;;;5022743;28;20037;-79
2022/09/11 01:07:48;;;;;;;3.03;2.10;;;;;;;;;;5010857;28;20025;-79
2022/09/11 01:10:14;;;;;;;2.08;1.88;;;;;;;;;;5013641;28;20125;-79
2022/09/11 01:12:43;;;;;;;3.15;1.67;;;;;;;;;;5021761;28;20524;-79
2022/09/11 01:15:35;;;;;;;3.00;2.00;;;;;;;;;;5015507;28;20050;-79
2022/09/11 01:18:01;;;;;;;3.03;2.00;;;;;;;;;;5006017;28;20530;-79
2022/09/11 01:20:53;;;;;;;3.20;2.50;;;;;;;;;;5011260;28;20111;-79
2022/09/11 01:23:27;;;;;;;2.40;1.80;;;;;;;;;;5023123;28;20404;-79
2022/09/11 01:26:00;;;;;;;2.70;1.80;;;;;;;;;;5017653;28;20025;-79
2022/09/11 01:28:32;;;;;;;2.78;2.08;;;;;;;;;;5025624;28;20029;-79
2022/09/11 01:31:02;;;;;;;2.42;1.75;;;;;;;;;;5017156;28;20033;-79
2022/09/11 01:33:30;;;;;;;2.33;1.70;;;;;;;;;;5019489;28;20037;-79
2022/09/11 01:36:02;;;;;;;2.03;1.67;;;;;;;;;;5021902;28;20048;-79
2022/09/11 01:38:37;;;;;;;1.98;1.55;;;;;;;;;;5013171;28;20021;-79
2022/09/11 01:41:22;;;;;;;1.80;1.70;;;;;;;;;;5014850;28;20034;-79
2022/09/11 01:43:50;;;;;;;2.88;2.13;;;;;;;;;;5012284;28;20491;-79
2022/09/11 01:46:20;;;;;;;1.88;1.67;;;;;;;;;;5018603;28;20128;-79
2022/09/11 01:48:48;;;;;;;4.20;1.70;;;;;;;;;;5014585;28;20610;-79
2022/09/11 01:51:17;;;;;;;2.28;1.75;;;;;;;;;;5007858;28;20053;-80
2022/09/11 01:53:46;;;;;;;1.58;1.35;;;;;;;;;;5021481;28;20049;-80
2022/09/11 01:56:18;;;;;;;1.95;1.40;;;;;;;;;;5018708;28;20029;-79
2022/09/11 01:58:44;;;;;;;1.95;1.52;;;;;;;;;;5007412;28;20380;-80
2022/09/11 02:01:13;;;;;;;2.05;1.40;;;;;;;;;;5017697;28;20493;-80
2022/09/11 02:03:42;;;;;;;1.95;1.70;;;;;;;;;;5018862;28;20032;-80
2022/09/11 02:06:17;;;;;;;1.45;1.35;;;;;;;;;;5020864;28;20040;-80
2022/09/11 02:08:45;;;;;;;1.70;1.50;;;;;;;;;;5015512;28;20038;-80
2022/09/11 02:11:13;;;;;;;2.75;2.00;;;;;;;;;;5017283;28;20056;-80
2022/09/11 02:13:43;;;;;;;2.00;1.55;;;;;;;;;;5019365;28;20370;-80
2022/09/11 02:16:15;;;;;;;1.92;1.65;;;;;;;;;;5016535;28;20408;-80
2022/09/11 02:18:44;;;;;;;1.38;1.27;;;;;;;;;;5016529;28;21999;-79
2022/09/11 02:21:10;;;;;;;2.67;1.70;;;;;;;;;;5019192;28;20021;-80
2022/09/11 02:23:36;;;;;;;2.45;1.58;;;;;;;;;;5022323;28;20494;-80
2022/09/11 02:26:04;;;;;;;2.20;1.40;;;;;;;;;;5025400;28;20204;-80
2022/09/11 02:28:30;;;;;;;1.95;1.60;;;;;;;;;;5015069;28;20025;-79
2022/09/11 02:30:56;;;;;;;2.10;1.33;;;;;;;;;;5018551;28;20026;-80
2022/09/11 02:33:30;;;;;;;1.55;1.45;;;;;;;;;;5015948;28;20029;-80
2022/09/11 02:36:01;;;;;;;2.35;1.55;;;;;;;;;;5019829;28;20029;-80
2022/09/11 02:38:32;;;;;;;3.00;1.95;;;;;;;;;;5015928;28;20033;-80
2022/09/11 02:41:02;;;;;;;1.98;1.50;;;;;;;;;;5010888;28;20038;-80
2022/09/11 02:43:38;;;;;;;2.75;1.83;;;;;;;;;;5012928;28;20072;-80
2022/09/11 02:46:26;;;;;;;2.20;1.75;;;;;;;;;;5021090;28;20152;-80
2022/09/11 02:48:54;;;;;;;1.90;1.70;;;;;;;;;;5016743;28;20451;-80
2022/09/11 02:51:27;;;;;;;2.25;1.85;;;;;;;;;;5012274;28;20060;-80
2022/09/11 02:53:53;;;;;;;1.90;1.33;;;;;;;;;;5018608;28;20408;-80
2022/09/11 02:56:35;;;;;;;3.33;1.90;;;;;;;;;;5017360;28;20033;-80
2022/09/11 02:59:04;;;;;;;5.10;2.25;;;;;;;;;;5023640;28;20210;-80
2022/09/11 03:01:30;;;;;;;2.28;1.73;;;;;;;;;;5007366;28;20445;-81
2022/09/11 03:03:56;;;;;;;3.33;2.08;;;;;;;;;;5013835;28;20017;-81
2022/09/11 03:06:23;;;;;;;3.55;2.30;;;;;;;;;;5024721;28;20553;-80
2022/09/11 03:08:50;;;;;;;3.45;2.40;;;;;;;;;;5024129;28;20120;-80
2022/09/11 03:11:16;;;;;;;4.53;2.75;;;;;;;;;;5022581;28;20041;-80
2022/09/11 03:13:43;;;;;;;3.92;2.72;;;;;;;;;;5014936;28;20027;-80
2022/09/11 03:16:10;;;;;;;4.15;2.38;;;;;;;;;;5026519;28;20060;-80
2022/09/11 03:18:36;;;;;;;4.05;2.58;;;;;;;;;;5018000;28;20500;-80
2022/09/11 03:21:02;;;;;;;4.28;2.60;;;;;;;;;;5024466;28;20068;-80
2022/09/11 03:23:28;;;;;;;3.10;2.47;;;;;;;;;;5015491;28;20102;-80
2022/09/11 03:25:54;;;;;;;4.13;2.70;;;;;;;;;;5014935;28;20186;-80
2022/09/11 03:28:21;;;;;;;4.22;2.85;;;;;;;;;;5015408;28;20017;-80
2022/09/11 03:30:48;;;;;;;4.45;2.88;;;;;;;;;;5027860;28;20104;-80
2022/09/11 03:33:14;;;;;;;5.15;3.00;;;;;;;;;;5020077;28;20366;-80
2022/09/11 03:35:42;;;;;;;3.72;2.42;;;;;;;;;;5019018;28;20032;-81
2022/09/11 03:38:08;;;;;;;5.30;2.65;;;;;;;;;;5016515;28;20029;-80
2022/09/11 03:40:33;;;;;;;6.90;3.20;;;;;;;;;;5021753;28;20053;-80
2022/09/11 03:42:59;;;;;;;5.45;3.13;;;;;;;;;;5017528;28;20013;-80
2022/09/11 03:45:26;;;;;;;4.97;2.72;;;;;;;;;;5016075;28;20485;-80
2022/09/11 03:47:52;;;;;;;5.00;2.72;;;;;;;;;;5014485;28;20025;-80
2022/09/11 03:50:18;;;;;;;5.15;3.08;;;;;;;;;;5014065;28;20060;-79
2022/09/11 03:52:44;;;;;;;3.85;2.45;;;;;;;;;;5019564;28;20399;-80
2022/09/11 03:55:10;;;;;;;6.35;3.00;;;;;;;;;;5017264;28;20018;-81
2022/09/11 03:57:37;;;;;;;4.68;2.42;;;;;;;;;;5020843;28;20037;-80
2022/09/11 04:00:03;;;;;;;4.28;2.60;;;;;;;;;;5018513;28;20029;-80
2022/09/11 04:02:30;;;;;;;4.28;2.50;;;;;;;;;;5021105;28;20571;-79
2022/09/11 04:04:56;;;;;;;3.75;2.38;;;;;;;;;;5022900;28;20436;-80
2022/09/11 04:07:22;;;;;;;4.50;2.28;;;;;;;;;;5016454;28;20033;-80
2022/09/11 04:09:48;;;;;;;6.03;2.83;;;;;;;;;;5018164;28;20033;-80
2022/09/11 04:12:15;;;;;;;3.42;2.97;;;;;;;;;;5021828;28;20107;-79
2022/09/11 04:14:41;;;;;;;8.77;3.20;;;;;;;;;;5019352;28;20022;-80
2022/09/11 04:17:07;;;;;;;4.55;2.40;;;;;;;;;;5016999;28;20021;-80
2022/09/11 04:19:33;;;;;;;4.50;2.70;;;;;;;;;;5024804;28;20030;-80
2022/09/11 04:21:59;;;;;;;4.65;2.92;;;;;;;;;;5023598;28;20034;-80
2022/09/11 04:24:25;;;;;;;7.72;3.63;;;;;;;;;;5021824;28;20033;-80
2022/09/11 04:26:51;;;;;;;7.63;2.97;;;;;;;;;;5008931;28;20442;-80
2022/09/11 04:29:17;;;;;;;5.50;2.50;;;;;;;;;;5024840;28;20017;-80
2022/09/11 04:31:43;;;;;;;6.75;3.00;;;;;;;;;;5015606;28;20033;-80
2022/09/11 04:34:10;;;;;;;5.30;3.15;;;;;;;;;;5012721;28;20034;-80
2022/09/11 04:36:36;;;;;;;6.05;2.78;;;;;;;;;;5016188;28;20051;-80
2022/09/11 04:39:02;;;;;;;6.38;3.30;;;;;;;;;;5017319;28;20400;-80
2022/09/11 04:41:28;;;;;;;5.32;2.45;;;;;;;;;;5020704;28;20033;-80
2022/09/11 04:43:55;;;;;;;7.47;3.50;;;;;;;;;;5013017;28;20029;-80
2022/09/11 04:46:22;;;;;;;5.97;3.10;;;;;;;;;;5016275;28;20037;-80
2022/09/11 04:48:50;;;;;;;7.28;3.80;;;;;;;;;;5020013;28;20440;-81
2022/09/11 04:51:20;;;;;;;5.18;3.30;;;;;;;;;;5015811;28;20403;-80
2022/09/11 04:53:47;;;;;;;5.90;3.30;;;;;;;;;;5016775;28;20029;-81
2022/09/11 04:56:13;;;;;;;6.15;3.45;;;;;;;;;;5017364;28;20029;-80
2022/09/11 04:58:39;;;;;;;7.47;3.10;;;;;;;;;;5015699;28;20036;-80
2022/09/11 05:01:06;;;;;;;7.18;3.38;;;;;;;;;;5019188;28;20041;-80
2022/09/11 05:03:32;;;;;;;6.45;3.38;;;;;;;;;;5014366;28;20038;-80
2022/09/11 05:05:58;;;;;;;6.47;3.78;;;;;;;;;;5018329;28;20407;-80
2022/09/11 05:08:25;;;;;;;7.43;3.70;;;;;;;;;;5020624;28;20036;-80
2022/09/11 05:10:52;;;;;;;6.78;3.83;;;;;;;;;;5020241;28;20034;-81
2022/09/11 05:13:17;;;;;;;8.15;3.70;;;;;;;;;;5013600;28;20060;-81
2022/09/11 05:15:43;;;;;;;5.57;3.38;;;;;;;;;;5013815;28;20511;-80
2022/09/11 05:18:10;;;;;;;5.05;3.20;;;;;;;;;;5014374;28;21742;-80
2022/09/11 05:20:36;;;;;;;9.52;3.75;;;;;;;;;;5015275;28;20030;-81
2022/09/11 05:23:02;;;;;;;8.35;3.20;;;;;;;;;;5018703;28;20099;-81
2022/09/11 05:25:30;;;;;;;6.82;4.63;;;;;;;;;;5013811;28;20026;-81
2022/09/11 05:27:56;;;;;;;9.25;4.13;;;;;;;;;;5014908;28;20034;-81
2022/09/11 05:30:22;;;;;;;8.23;3.90;;;;;;;;;;5027485;28;20174;-81
2022/09/11 05:32:53;;;;;;;6.40;4.25;;;;;;;;;;5015478;28;20021;-81
2022/09/11 05:35:19;;;;;;;;;;;;;;;;;;5023172;28;20478;-81
2022/09/11 05:37:45;;;;;;;13.77;4.65;;;;;;;;;;5013778;28;19944;-80
2022/09/11 05:40:11;;;;;;;8.70;4.13;;;;;;;;;;5014245;28;20042;-80
2022/09/11 05:42:37;;;;;;;8.55;4.43;;;;;;;;;;5015053;28;20060;-80
2022/09/11 05:45:04;;;;;;;10.60;4.88;;;;;;;;;;5010013;28;20081;-80
2022/09/11 05:47:30;;;;;;;9.07;4.88;;;;;;;;;;5020170;28;20025;-80
2022/09/11 05:49:56;;;;;;;12.38;4.40;;;;;;;;;;5009374;28;20115;-80
2022/09/11 05:52:23;;;;;;;9.45;4.88;;;;;;;;;;5013017;28;20034;-79
2022/09/11 05:54:50;;;;;;;11.10;4.70;;;;;;;;;;5017487;28;20033;-80
2022/09/11 05:57:16;;;;;;;13.40;5.50;;;;;;;;;;5018706;28;20728;-80
2022/09/11 05:59:45;;;;;;;7.25;4.25;;;;;;;;;;5015569;28;20121;-80
2022/09/11 06:02:11;;;;;;;9.57;4.72;;;;;;;;;;5020128;28;20487;-80
2022/09/11 06:04:37;;;;;;;8.35;4.25;;;;;;;;;;5018970;28;20059;-80
2022/09/11 06:07:03;;;;;;;10.73;4.43;;;;;;;;;;5018980;28;20049;-80
2022/09/11 06:09:29;;;;;;;11.00;4.45;;;;;;;;;;5016509;28;20910;-80
2022/09/11 06:11:55;;;;;;;8.75;4.30;;;;;;;;;;5023089;28;20070;-80
2022/09/11 06:14:21;;;;;;;6.82;4.03;;;;;;;;;;5037260;28;20029;-78
2022/09/11 06:16:47;;;;;;;8.55;4.47;;;;;;;;;;5028117;28;20025;-78
2022/09/11 06:19:13;;;;;;;10.05;4.22;;;;;;;;;;5021814;28;20029;-78
2022/09/11 06:21:39;;;;;;;9.40;4.85;;;;;;;;;;5024640;28;20128;-78
2022/09/11 06:24:05;;;;;;;10.88;4.60;;;;;;;;;;5012628;28;20558;-79
2022/09/11 06:26:31;;;;;;;10.05;4.20;;;;;;;;;;5022008;28;20033;-79
2022/09/11 06:28:57;;;;;;;11.25;4.97;;;;;;;;;;5012429;28;20021;-80
2022/09/11 06:31:24;;;;;;;9.98;4.60;;;;;;;;;;5011895;28;20061;-79
2022/09/11 06:33:50;;;;;;;7.47;4.07;;;;;;;;;;5014710;28;20021;-79
2022/09/11 06:36:18;;;;;;;10.82;4.68;;;;;;;;;;5014837;28;20032;-79
2022/09/11 06:38:44;;;;;;;10.55;5.07;;;;;;;;;;5011193;28;20530;-79
2022/09/11 06:41:12;;;;;;;11.27;4.07;;;;;;;;;;5013607;28;20026;-79
2022/09/11 06:43:38;;;;;;;8.43;4.30;;;;;;;;;;5018793;28;20101;-79
2022/09/11 06:46:05;;;;;;;9.73;4.68;;;;;;;;;;5023408;28;20036;-78
2022/09/11 06:48:31;;;;;;;11.90;4.30;;;;;;;;;;5011005;28;20026;-80
2022/09/11 06:51:01;;;;;;;10.48;4.03;;;;;;;;;;5019899;28;20104;-79
2022/09/11 06:53:35;;;;;;;7.90;4.38;;;;;;;;;;5019893;28;20400;-80
2022/09/11 06:56:01;;;;;;;9.05;3.97;;;;;;;;;;5025284;28;20029;-80
2022/09/11 06:58:28;;;;;;;7.55;4.43;;;;;;;;;;5021773;28;20391;-76
2022/09/11 07:00:55;;;;;;;9.20;4.35;;;;;;;;;;5024959;28;20021;-77
2022/09/11 07:03:21;;;;;;;9.43;4.22;;;;;;;;;;5012889;28;20026;-79
2022/09/11 07:05:47;;;;;;;7.72;4.07;;;;;;;;;;5019086;28;20014;-78
2022/09/11 07:08:13;;;;;;;8.43;4.00;;;;;;;;;;5020996;28;20487;-77
2022/09/11 07:10:39;;;;;;;6.32;3.50;;;;;;;;;;5024298;28;20099;-76
2022/09/11 07:13:05;;;;;;;8.38;4.22;;;;;;;;;;5023782;28;20435;-77
2022/09/11 07:15:31;;;;;;;7.22;3.75;;;;;;;;;;5019736;28;20120;-76
2022/09/11 07:17:57;;;;;;;6.00;3.47;;;;;;;;;;5027030;28;20057;-77
2022/09/11 07:20:23;;;;;;;9.30;4.57;;;;;;;;;;5026249;28;20029;-78
2022/09/11 07:22:49;;;;;;;7.63;4.00;;;;;;;;;;5023178;28;20064;-79
2022/09/11 07:25:16;;;;;;;12.88;4.38;;;;;;;;;;5022919;28;20036;-82
2022/09/11 07:27:42;;;;;;;7.78;4.22;;;;;;;;;;5020884;28;20068;-84
2022/09/11 07:30:09;;;;;;;9.70;4.13;;;;;;;;;;5026489;28;20465;-82
2022/09/11 07:32:36;;;;;;;11.05;5.70;;;;;;;;;;5016452;28;20034;-84
2022/09/11 07:35:11;;;;;;;9.15;3.88;;;;;;;;;;5026797;28;20034;-77
2022/09/11 07:37:36;;;;;;;10.90;4.15;;;;;;;;;;5023502;28;20037;-77
2022/09/11 07:40:07;;;;;;;7.38;4.07;;;;;;;;;;5020944;28;20041;-82
2022/09/11 07:42:33;;;;;;;8.65;4.20;;;;;;;;;;5017767;28;20037;-77
2022/09/11 07:44:58;;;;;;;8.80;3.83;;;;;;;;;;5025452;28;20033;-77
2022/09/11 07:47:24;;;;;;;8.57;4.32;;;;;;;;;;5007007;28;20448;-77
2022/09/11 07:49:50;;;;;;;6.72;4.05;;;;;;;;;;5041744;28;20064;-78
2022/09/11 07:52:19;;;;;;;7.88;4.57;;;;;;;;;;5046102;28;20056;-77
2022/09/11 07:54:54;;;;;;;6.57;4.10;;;;;;;;;;5027640;28;20030;-77
2022/09/11 07:57:23;;;;;;;9.13;3.58;;;;;;;;;;5021211;28;20083;-77
2022/09/11 07:59:48;;;;;;;9.85;4.72;;;;;;;;;;5030264;28;20108;-77
2022/09/11 08:02:14;;;;;;;9.10;3.50;;;;;;;;;;5028157;28;20252;-77
2022/09/11 08:04:40;;;;;;;5.35;3.63;;;;;;;;;;5027940;28;20049;-78
2022/09/11 08:07:06;;;;;;;10.15;3.90;;;;;;;;;;5028807;28;20056;-77
2022/09/11 08:09:32;;;;;;;8.98;4.05;;;;;;;;;;5018433;28;20044;-77
2022/09/11 08:11:59;;;;;;;5.10;3.35;;;;;;;;;;5029403;28;20025;-77
2022/09/11 08:14:26;;;;;;;9.02;4.60;;;;;;;;;;5024189;28;20446;-77
2022/09/11 08:16:52;;;;;;;8.45;3.75;;;;;;;;;;5028919;28;20034;-77
2022/09/11 08:19:19;;;;;;;7.68;4.05;;;;;;;;;;5022700;28;20061;-77
2022/09/11 08:21:46;;;;;;;6.88;4.00;;;;;;;;;;5029294;28;20029;-77
2022/09/11 08:24:12;;;;;;;6.65;3.80;;;;;;;;;;5021851;28;20038;-77
2022/09/11 08:26:38;;;;;;;8.10;3.65;;;;;;;;;;5024620;28;20446;-77
2022/09/11 08:29:05;;;;;;;6.82;3.70;;;;;;;;;;5028228;28;20100;-77
2022/09/11 08:31:32;;;;;;;6.05;3.65;;;;;;;;;;5029257;28;20033;-77
2022/09/11 08:33:58;;;;;;;8.07;4.10;;;;;;;;;;5027719;28;20036;-77
2022/09/11 08:36:24;;;;;;;8.13;3.92;;;;;;;;;;5024367;28;20025;-77
2022/09/11 08:38:51;;;;;;;5.68;3.42;;;;;;;;;;5027558;28;20616;-77
2022/09/11 08:41:23;;;;;;;6.82;3.50;;;;;;;;;;5023668;28;20038;-77
2022/09/11 08:43:57;;;;;;;6.35;3.90;;;;;;;;;;5029488;28;20040;-77
2022/09/11 08:46:26;;;;;;;5.72;3.47;;;;;;;;;;5016561;28;20087;-77
2022/09/11 08:48:58;;;;;;;8.13;3.50;;;;;;;;;;5027178;28;20037;-77
2022/09/11 08:51:27;;;;;;;6.65;3.25;;;;;;;;;;5027609;28;20076;-77
2022/09/11 08:54:00;;;;;;;5.63;3.47;;;;;;;;;;5029212;28;20034;-77
2022/09/11 08:56:28;;;;;;;6.88;3.25;;;;;;;;;;5029105;28;20031;-77
2022/09/11 08:59:13;;;;;;;7.72;4.28;;;;;;;;;;5022597;28;20030;-77
2022/09/11 09:01:53;;;;;;;6.43;3.67;;;;;;;;;;5026055;28;20030;-77
2022/09/11 09:04:22;;;;;;;7.30;3.70;;;;;;;;;;5028790;28;20037;-77
2022/09/11 09:07:09;;;;;;;6.50;3.67;;;;;;;;;;5023521;28;20033;-77
2022/09/11 09:09:35;;;;;;;5.80;3.25;;;;;;;;;;5019269;28;20106;-77
2022/09/11 09:12:08;;;;;;;9.68;3.80;;;;;;;;;;5014760;28;21343;-77
2022/09/11 09:14:46;;;;;;;4.28;2.95;;;;;;;;;;5016877;28;20037;-78
2022/09/11 09:17:18;;;;;;;5.75;3.88;;;;;;;;;;5020878;28;20041;-77
2022/09/11 09:19:45;;;;;;;;;;;;;;;;;;5018833;28;20079;-77
2022/09/11 09:22:15;;;;;;;4.97;3.20;;;;;;;;;;5026355;28;19913;-77
2022/09/11 09:24:42;;;;;;;6.53;3.13;;;;;;;;;;5028448;28;20018;-78
2022/09/11 09:27:14;;;;;;;6.70;3.92;;;;;;;;;;5028671;28;20026;-78
2022/09/11 09:29:41;;;;;;;6.80;3.03;;;;;;;;;;5020809;28;20025;-77
2022/09/11 09:32:15;;;;;;;8.35;3.20;;;;;;;;;;5013409;28;20028;-78
2022/09/11 09:34:44;;;;;;;5.13;3.13;;;;;;;;;;5013591;28;20034;-75
2022/09/11 09:37:21;;;;;;;6.50;3.13;;;;;;;;;;5024677;28;20037;-74
2022/09/11 09:39:47;;;;;;;4.40;2.95;;;;;;;;;;5021404;28;20029;-76
2022/09/11 09:42:32;;;;;;;4.30;2.55;;;;;;;;;;5027840;28;20032;-74
2022/09/11 09:45:08;;;;;;;5.45;3.42;;;;;;;;;;5018867;28;20029;-75
2022/09/11 09:47:36;;;;;;;5.40;3.47;;;;;;;;;;5024514;28;20030;-71
2022/09/11 09:50:18;;;;;;;5.70;3.42;;;;;;;;;;5015227;28;20300;-71
2022/09/11 09:52:44;;;;;;;7.30;3.03;;;;;;;;;;5019360;28;20113;-76
2022/09/11 09:55:17;;;;;;;6.53;3.25;;;;;;;;;;5018433;28;20123;-75
2022/09/11 09:57:43;;;;;;;7.28;3.40;;;19.30;99.90;;;;;;5021180;28;21449;-75
2022/09/11 10:00:08;;;;;;;6.22;3.03;;;19.60;99.90;;;;;;5024288;28;20045;-74
2022/09/11 10:02:51;;;;;;;4.72;2.95;;;19.70;99.90;;;;;;5016006;28;20017;-77
2022/09/11 10:05:40;;;;;;;4.75;3.03;;;20.60;99.90;;;;;;5032230;28;20057;-75
2022/09/11 10:08:24;;;;;;;7.05;3.65;;;20.60;99.90;;;;;;5014711;28;20472;-76
2022/09/11 10:10:56;;;;;;;5.60;3.38;;;20.90;99.90;;;;;;5023419;28;20117;-76
2022/09/11 10:13:35;;;;;;;5.35;2.92;;;21.30;99.90;;;;;;5015183;28;20041;-75
2022/09/11 10:16:03;;;;;;;5.97;3.00;;;21.60;99.90;;;;;;5010347;28;20675;-73
2022/09/11 10:18:32;;;;;;;6.53;2.88;;;23.90;99.30;;;;;;5018532;28;20124;-75
2022/09/11 10:21:23;;;;;;;6.53;3.50;;;23.80;99.90;;;;;;5018983;28;20105;-75
2022/09/11 10:23:50;;;;;;;6.45;3.55;;;21.90;99.90;;;;;;5013913;28;20104;-76
2022/09/11 10:26:35;;;;;;;5.90;2.90;;;21.60;99.90;;;;;;5025269;28;20071;-73
2022/09/11 10:29:06;;;;;;;6.15;2.78;;;21.40;99.90;;;;;;5010999;28;20484;-75
2022/09/11 10:31:33;;;;;;;;;;;21.60;99.90;;;;;;5021139;28;20679;-75
2022/09/11 10:33:59;;;;;;;6.30;3.05;;;21.80;99.90;;;;;;5013399;28;19909;-76
2022/09/11 10:36:27;;;;;;;4.85;3.10;;;22.30;99.90;;;;;;5025702;28;20025;-76
2022/09/11 10:38:57;;;;;;;6.05;3.00;;;22.80;99.90;;;;;;5017106;28;20112;-72
2022/09/11 10:41:25;;;;;;;5.43;3.03;;;22.60;99.90;;;;;;5011400;28;20118;-72
2022/09/11 10:44:00;;;;;;;5.10;2.72;;;22.20;99.60;;;;;;5022309;28;20021;-76
2022/09/11 10:46:31;;;;;;;3.88;2.85;;;21.50;99.90;;;;;;5011472;28;20021;-76
2022/09/11 10:49:02;;;;;;;4.78;3.13;;;20.60;99.90;;;;;;5014948;28;20036;-76
2022/09/11 10:51:33;;;;;;;4.70;2.83;;;19.90;99.90;;;;;;5017946;28;20081;-72
2022/09/11 10:54:19;;;;;;;4.75;3.42;;;19.50;99.90;;;;;;5015883;28;20028;-72
2022/09/11 10:57:01;;;;;;;3.88;2.67;;;19.50;99.90;;;;;;5013501;28;20172;-76
2022/09/11 10:59:58;;;;;;;4.10;2.60;;;19.70;99.90;;;;;;5023999;28;20052;-75
2022/09/11 11:02:33;;;;;;;2.90;2.35;;;20.00;99.90;;;;;;5003443;28;20044;-75
2022/09/11 11:05:19;;;;;;;3.60;2.38;;;20.30;99.90;;;;;;5017209;28;20025;-76
2022/09/11 11:08:05;;;;;;;3.72;2.50;;;20.70;99.90;;;;;;5004868;28;20057;-76
2022/09/11 11:10:51;;;;;;;5.22;2.70;;;21.40;99.90;;;;;;5010658;28;20029;-76
2022/09/11 11:13:37;;;;;;;3.50;2.35;;;23.60;97.10;;;;;;5007468;28;20132;-75
2022/09/11 11:16:11;;;;;;;5.43;2.65;;;25.40;94.00;;;;;;5009038;28;20493;-76
2022/09/11 11:18:59;;;;;;;5.15;2.55;;;26.40;90.70;;;;;;5005367;28;20033;-76
2022/09/11 11:21:31;;;;;;;3.83;2.10;;;26.10;85.40;;;;;;5009555;28;20030;-75
2022/09/11 11:24:31;;;;;;;5.57;2.63;;;26.00;82.00;;;;;;5008402;28;20029;-76
2022/09/11 11:27:03;;;;;;;3.38;2.35;;;25.90;78.00;;;;;;5012852;28;20021;-71
2022/09/11 11:30:07;;;;;;;3.17;2.55;;;26.80;81.90;;;;;;5023398;28;20445;-72
2022/09/11 11:33:12;;;;;;;3.75;2.70;;;28.90;92.00;;;;;;5017692;28;20116;-72
2022/09/11 11:35:51;;;;;;;3.40;2.45;;;27.50;92.70;;;;;;5015346;28;20023;-72
2022/09/11 11:38:40;;;;;;;4.68;2.30;;;24.70;82.00;;;;;;5012708;28;20127;-72
2022/09/11 11:41:24;;;;;;;2.65;2.00;;;24.30;88.20;;;;;;5013977;28;20053;-72
2022/09/11 11:43:54;;;;;;;2.88;2.20;;;27.90;75.40;;;;;;5021294;28;20026;-72
2022/09/11 11:46:24;;;;;;;4.32;2.03;;;;;;;;;;5014807;28;20033;-72
2022/09/11 11:49:03;;;;;;;2.17;1.73;;;33.90;90.60;;;;;;5022493;28;20386;-72
2022/09/11 11:51:46;;;;;;;2.40;1.95;;;34.80;66.50;;;;;;5018625;28;20041;-73
2022/09/11 11:54:34;;;;;;;2.03;1.83;;;34.30;45.40;;;;;;5023940;28;20030;-72
2022/09/11 11:57:10;;;;;;;2.67;1.77;;;31.50;69.10;;;;;;5012863;28;20108;-72
2022/09/11 11:59:46;;;;;;;2.13;1.63;;;29.40;56.70;;;;;;5024085;28;20172;-70
2022/09/11 12:02:39;;;;;;;2.20;1.50;;;26.90;70.20;;;;;;5014175;28;20022;-71
2022/09/11 12:05:14;;;;;;;3.33;1.80;;;26.20;69.50;;;;;;5020480;28;20069;-70
2022/09/11 12:07:40;;;;;;;1.77;1.58;;;28.20;67.70;;;;;;5027638;28;20080;-72
2022/09/11 12:10:20;;;;;;;2.38;1.63;;;30.00;61.20;;;;;;5032622;28;20024;-72
2022/09/11 12:12:51;;;;;;;2.30;1.83;;;27.10;68.80;;;;;;5022201;28;20026;-73
2022/09/11 12:15:20;;;;;;;2.80;1.83;;;24.40;78.90;;;;;;5012525;28;20076;-71
2022/09/11 12:17:56;;;;;;;3.33;2.20;;;22.30;99.90;;;;;;5016550;28;20045;-71
2022/09/11 12:20:33;;;;;;;3.97;2.22;;;21.50;99.90;;;;;;5010649;28;20164;-72
2022/09/11 12:22:59;;;;;;;4.03;2.13;;;21.00;94.50;;;;;;5017326;28;20028;-71
2022/09/11 12:25:28;;;;;;;5.68;2.42;;;20.80;94.80;;;;;;5015240;28;20036;-72
2022/09/11 12:28:21;;;;;;;4.25;2.10;;;20.50;97.80;;;;;;5021377;28;20029;-72
2022/09/11 12:30:57;;;;;;;3.75;2.08;;;20.70;99.30;;;;;;5017067;28;20944;-72
2022/09/11 12:33:49;;;;;;;2.85;1.90;;;20.90;97.80;;;;;;5025506;28;20111;-71
2022/09/11 12:36:53;;;;;;;2.50;1.80;;;21.20;96.80;;;;;;5025310;28;20037;-71
2022/09/11 12:39:39;;;;;;;3.72;2.45;;;21.70;94.60;;;;;;5021234;28;20778;-72
2022/09/11 12:42:22;;;;;;;4.43;3.30;;;22.90;87.50;;;;;;5021320;28;20413;-72
2022/09/11 12:44:48;;;;;;;3.08;1.77;;;22.90;88.50;;;;;;5019681;28;20125;-72
2022/09/11 12:47:20;;;;;;;2.35;1.70;;;22.30;89.50;;;;;;5022414;28;20116;-72
2022/09/11 12:50:04;;;;;;;2.42;2.00;;;21.30;91.70;;;;;;5018568;28;20049;-76
2022/09/11 12:52:49;;;;;;;2.58;1.70;;;21.00;93.70;;;;;;5003892;28;20592;-73
2022/09/11 12:55:39;;;;;;;2.75;1.70;;;20.80;94.50;;;;;;5017385;28;20079;-72
2022/09/11 12:58:18;;;;;;;2.45;1.65;;;20.40;95.40;;;;;;5015550;28;20044;-72
2022/09/11 13:00:48;;;;;;;2.35;1.45;;;20.20;95.60;;;;;;5015832;28;20127;-72
2022/09/11 13:03:20;;;;;;;1.95;1.60;;;20.30;95.20;;;;;;5010344;28;20021;-73
2022/09/11 13:06:12;;;;;;;1.83;1.58;;;20.30;97.60;;;;;;5011087;28;20036;-73
2022/09/11 13:09:03;;;;;;;2.60;1.63;;;20.30;97.10;;;;;;5018181;28;20048;-74
2022/09/11 13:11:48;;;;;;;2.53;1.63;;;19.90;98.70;;;;;;5018713;28;20104;-74
2022/09/11 13:14:36;;;;;;;2.50;1.77;;;19.90;99.40;;;;;;5007669;28;20040;-74
2022/09/11 13:17:11;;;;;;;3.28;2.03;;;20.00;99.70;;;;;;5018567;28;20059;-72
2022/09/11 13:19:38;;;;;;;3.10;2.47;;;20.20;99.70;;;;;;5016210;28;20501;-73
2022/09/11 13:22:27;;;;;;;5.53;2.70;;;20.40;99.50;;;;;;5019274;28;20033;-74
2022/09/11 13:25:19;;;;;;;2.42;1.85;;;20.40;99.20;;;;;;5026304;28;20029;-73
2022/09/11 13:27:48;;;;;;;3.70;2.10;;;20.50;99.40;;;;;;5018433;28;20017;-77
2022/09/11 13:30:16;;;;;;;2.60;1.90;;;20.70;99.80;;;;;;5016193;28;20060;-72
2022/09/11 13:32:47;;;;;;;3.08;2.00;;;21.20;97.50;;;;;;5028836;28;20029;-75
2022/09/11 13:35:15;;;;;;;;;;;21.40;96.30;;;;;;5033073;28;20024;-71
2022/09/11 13:37:56;;;;;;;3.08;2.08;;;21.80;96.00;;;;;;5017870;28;19970;-75
2022/09/11 13:40:40;;;;;;;4.67;2.00;;;21.40;95.80;;;;;;5015428;28;20033;-77
2022/09/11 13:43:06;;;;;;;3.28;2.03;;;22.10;94.70;;;;;;5026283;28;20032;-75
2022/09/11 13:45:32;;;;;;;2.85;1.83;;;23.30;91.80;;;;;;5013172;28;20033;-76
2022/09/11 13:47:58;;;;;;;2.42;1.95;;;25.30;86.50;;;;;;5011733;28;20295;-76
2022/09/11 13:50:24;;;;;;;1.70;1.48;;;32.80;59.80;;;;;;5017818;28;20046;-73
2022/09/11 13:52:52;;;;;;;1.75;1.60;;;37.70;44.70;;;;;;5018570;28;20022;-73
2022/09/11 13:55:25;;;;;;;1.77;1.38;;;37.80;44.70;;;;;;5017354;28;20045;-73
2022/09/11 13:58:01;;;;;;;2.95;1.50;;;;;;;;;;5023277;28;20032;-73
2022/09/11 14:00:50;;;;;;;1.55;1.45;;;40.40;36.30;;;;;;5019313;28;20084;-73
2022/09/11 14:03:20;;;;;;;1.38;1.10;;;41.20;36.20;;;;;;5009573;28;20148;-73
2022/09/11 14:05:49;;;;;;;1.20;1.03;;;41.70;33.90;;;;;;5022997;28;20451;-73
2022/09/11 14:08:21;;;;;;;1.30;1.17;;;41.20;34.40;;;;;;5008663;28;20029;-73
2022/09/11 14:10:55;;;;;;;2.08;1.35;;;41.50;33.90;;;;;;5020244;28;20097;-73
2022/09/11 14:13:34;;;;;;;1.42;1.33;;;42.00;33.30;;;;;;5017501;28;20025;-71
2022/09/11 14:16:22;;;;;;;1.30;1.10;;;40.20;35.50;;;;;;5017363;28;20018;-72
2022/09/11 14:18:59;;;;;;;1.20;1.10;;;39.20;35.00;;;;;;5012112;28;20028;-72
2022/09/11 14:21:33;;;;;;;1.65;1.33;;;39.30;35.50;;;;;;5013753;28;20532;-72
2022/09/11 14:23:59;;;;;;;2.20;1.20;;;38.20;37.00;;;;;;5021192;28;20021;-74
2022/09/11 14:26:40;;;;;;;2.13;0.90;;;40.20;35.10;;;;;;5025363;28;20021;-74
2022/09/11 14:29:24;;;;;;;1.30;1.20;;;41.70;35.40;;;;;;5014936;28;20021;-74